Stanwood, IA (52337)

7:31 AM CDT on September 05, 2015 (GMT -0500)
Olin, Iowa | | Change Station
CLOSE
Current Station
Personal Weather Station
Location: Olin, IA
Elevation: 767 ft
Nearby Weather Stations

Elev 767 ft 42.00 °N, 91.14 °W | Updated 1 minute ago

Partly Cloudy
Partly Cloudy
72.5 °F
Feels Like 72.5 °F
N
0.0
Wind Variable Wind from ENE

Today
High -- | Low -- °F
--% Chance of Precip.
Yesterday
High -- | Low -- °F
Precip. -- in
6:34 AM 7:31 PM
Waning Gibbous, 49% visible
Pressure 30.04 in
Visibility 8.0 miles
Clouds Few 6000 ft
Few 7500 ft
Scattered Clouds 9000 ft
Dew Point 72 °F
Humidity 99%
Rainfall 0.00 in
Snow Depth Not available.
UV 0 out of 12
Pollen 9.00 out of 12
Air Quality Not available.
Flu Activity Not available.
METAR KMXO 051215Z AUTO 00000KT 8SM FEW060 FEW075 SCT090 23/22 A3004 RMK AO2
Pressure 30.04 in
Visibility 8.0 miles
Clouds Few 6000 ft
Few 7500 ft
Scattered Clouds 9000 ft
Dew Point 72 °F
Humidity 99%
Rainfall 0.00 in
Snow Depth Not available.
UV 0 out of 12
Pollen 9.00 out of 12
Air Quality Not available.
Flu Activity Not available.
METAR KMXO 051215Z AUTO 00000KT 8SM FEW060 FEW075 SCT090 23/22 A3004 RMK AO2

10-Day Weather Forecast

×

Almanac

Astronomy

Sep. 05, 2015 Rise Set
Actual Time
Civil Twilight
Nautical Twilight
Astronomical Twilight
Moon
Length of Visible Light
Length of Day
Tomorrow will be .
, % of the Moon is Illuminated

Today's Extremes

State Highs State Lows

Community

WunderPhotos

Upload Photos

1,852,454 photos uploaded!

WunderBlogs® & News

Nearby

Air Quality

  Air Quality AQ Index Pollutant
Not available.

Snow Depth

Station Depth Elevation

Earthquake Activity

City Distance Mag. Time & Date
Minimum magnitude displayed is 2.5.

Coastal Water Temperatures

Place Temperature

Stations

Nearby Weather Stations

Station Location Temp. Windchill Dew Point Humidity Wind Precip. Elev Updated Type